createdAt,value
2023-05-12T00:01:45.539Z,9.96
2023-05-12T00:04:13.282Z,9.97
2023-05-12T00:06:41.290Z,9.89
2023-05-12T00:09:09.741Z,9.94
2023-05-12T00:11:40.817Z,9.88
2023-05-12T00:14:09.055Z,9.82
2023-05-12T00:16:37.079Z,9.87
2023-05-12T00:19:04.800Z,9.80
2023-05-12T00:21:32.900Z,9.76
2023-05-12T00:24:00.554Z,9.62
2023-05-12T00:26:28.524Z,9.72
2023-05-12T00:28:56.234Z,9.62
2023-05-12T00:31:24.308Z,9.73
2023-05-12T00:33:52.156Z,9.89
2023-05-12T00:36:20.149Z,9.73
2023-05-12T00:38:47.810Z,9.67
2023-05-12T00:41:16.261Z,9.76
2023-05-12T00:43:43.960Z,9.80
2023-05-12T00:46:12.540Z,9.80
2023-05-12T00:48:40.558Z,9.81
2023-05-12T00:51:08.967Z,9.66
2023-05-12T00:53:48.469Z,9.68
2023-05-12T00:56:20.040Z,9.61
2023-05-12T00:58:48.025Z,9.62
2023-05-12T01:01:17.721Z,9.63
2023-05-12T01:03:47.760Z,9.68
2023-05-12T01:06:43.808Z,9.51
2023-05-12T01:09:12.775Z,9.48
2023-05-12T01:11:40.778Z,9.55
2023-05-12T01:14:09.504Z,9.45
2023-05-12T01:16:51.420Z,9.48
2023-05-12T01:19:49.607Z,9.44
2023-05-12T01:22:18.266Z,9.33
2023-05-12T01:24:54.928Z,9.34
2023-05-12T01:27:25.925Z,9.28
2023-05-12T01:30:00.451Z,9.35
2023-05-12T01:32:30.574Z,9.40
2023-05-12T01:34:59.310Z,9.30
2023-05-12T01:37:27.585Z,9.19
2023-05-12T01:39:55.997Z,9.24
2023-05-12T01:42:24.027Z,9.12
2023-05-12T01:44:52.008Z,9.01
2023-05-12T01:47:21.767Z,9.13
2023-05-12T01:50:07.506Z,8.88
2023-05-12T01:52:38.792Z,8.74
2023-05-12T01:55:10.901Z,8.84
2023-05-12T01:57:46.415Z,8.76
2023-05-12T02:00:14.719Z,8.74
2023-05-12T02:02:45.430Z,8.81
2023-05-12T02:05:14.188Z,8.68
2023-05-12T02:07:45.200Z,8.62
2023-05-12T02:10:13.832Z,8.69
2023-05-12T02:12:41.828Z,8.46
2023-05-12T02:15:10.615Z,8.65
2023-05-12T02:17:43.117Z,8.69
2023-05-12T02:20:12.434Z,8.80
2023-05-12T02:22:40.805Z,8.66
2023-05-12T02:25:09.167Z,8.80
2023-05-12T02:27:37.456Z,8.81
2023-05-12T02:30:06.668Z,8.71
2023-05-12T02:32:34.726Z,8.60
2023-05-12T02:35:02.489Z,8.68
2023-05-12T02:37:30.697Z,8.66
2023-05-12T02:39:58.445Z,8.44
2023-05-12T02:42:31.039Z,8.30
2023-05-12T02:44:58.704Z,8.35
2023-05-12T02:47:26.612Z,8.49
2023-05-12T02:49:55.614Z,8.39
2023-05-12T02:52:24.141Z,8.45
2023-05-12T02:54:52.013Z,8.48
2023-05-12T02:57:20.114Z,8.53
2023-05-12T02:59:47.761Z,8.57
2023-05-12T03:02:15.887Z,8.69
2023-05-12T03:04:43.764Z,8.61
2023-05-12T03:07:11.745Z,8.80
2023-05-12T03:09:39.544Z,8.86
2023-05-12T03:12:08.004Z,9.06
2023-05-12T03:14:35.822Z,9.09
2023-05-12T03:17:03.970Z,8.97
2023-05-12T03:19:31.738Z,9.30
2023-05-12T03:21:59.781Z,9.18
2023-05-12T03:24:27.807Z,9.14
2023-05-12T03:26:56.224Z,9.20
2023-05-12T03:29:24.638Z,9.25
2023-05-12T03:31:52.978Z,9.09
2023-05-12T03:34:20.989Z,9.20
2023-05-12T03:36:49.913Z,9.22
2023-05-12T03:39:18.543Z,9.23
2023-05-12T03:41:46.517Z,9.32
2023-05-12T03:44:14.335Z,9.36
2023-05-12T03:46:42.528Z,9.62
2023-05-12T03:49:10.672Z,9.71
2023-05-12T03:51:38.741Z,9.76
2023-05-12T03:54:06.462Z,9.82
2023-05-12T03:56:34.729Z,9.91
2023-05-12T03:59:02.512Z,10.03
2023-05-12T04:01:30.627Z,9.99
2023-05-12T04:03:58.366Z,10.24
2023-05-12T04:06:26.519Z,10.93
2023-05-12T04:08:54.323Z,11.40
2023-05-12T04:11:22.336Z,12.47
2023-05-12T04:13:51.348Z,12.56
2023-05-12T04:16:19.347Z,12.54
2023-05-12T04:18:47.000Z,14.47
2023-05-12T04:21:15.021Z,14.42
2023-05-12T04:23:43.763Z,13.69
2023-05-12T04:26:11.786Z,14.97
2023-05-12T04:28:39.601Z,17.26
2023-05-12T04:31:07.581Z,18.93
2023-05-12T04:33:36.978Z,19.91
2023-05-12T04:36:06.447Z,20.43
2023-05-12T04:38:34.272Z,19.96
2023-05-12T04:41:02.323Z,20.22
2023-05-12T04:46:02.002Z,20.57
2023-05-12T04:48:29.848Z,18.93
2023-05-12T04:51:00.325Z,19.63
2023-05-12T04:53:28.529Z,19.78
2023-05-12T04:55:56.839Z,19.97
2023-05-12T04:58:26.770Z,18.01
2023-05-12T05:00:54.828Z,16.98
2023-05-12T05:03:23.499Z,16.83
2023-05-12T05:05:51.824Z,16.86
2023-05-12T05:08:19.599Z,17.01
2023-05-12T05:10:47.646Z,17.63
2023-05-12T05:13:16.543Z,19.58
2023-05-12T05:15:55.778Z,18.98
2023-05-12T05:18:25.908Z,18.09
2023-05-12T05:20:58.429Z,17.66
2023-05-12T05:23:27.193Z,17.76
2023-05-12T05:25:56.197Z,17.55
2023-05-12T05:28:24.538Z,17.06
2023-05-12T05:30:52.831Z,16.95
2023-05-12T05:33:20.554Z,18.70
2023-05-12T05:35:48.949Z,19.14
2023-05-12T05:38:17.313Z,17.91
2023-05-12T05:40:52.919Z,17.19
2023-05-12T05:43:22.015Z,16.76
2023-05-12T05:45:50.432Z,16.67
2023-05-12T05:48:19.273Z,16.62
2023-05-12T05:50:48.774Z,16.37
2023-05-12T05:53:18.475Z,19.87
2023-05-12T05:55:48.603Z,18.54
2023-05-12T05:58:16.898Z,17.31
2023-05-12T06:00:46.637Z,17.21
2023-05-12T06:03:14.454Z,17.28
2023-05-12T06:05:44.479Z,17.24
2023-05-12T06:08:13.602Z,17.62
2023-05-12T06:10:42.066Z,18.19
2023-05-12T06:13:10.065Z,18.58
2023-05-12T06:15:38.110Z,18.86
2023-05-12T06:18:05.984Z,18.41
2023-05-12T06:20:34.507Z,18.28
2023-05-12T06:23:02.619Z,18.67
2023-05-12T06:25:33.107Z,18.74
2023-05-12T06:28:01.809Z,19.07
2023-05-12T06:30:29.928Z,18.82
2023-05-12T06:32:57.674Z,19.19
2023-05-12T06:35:25.708Z,19.65
2023-05-12T06:37:53.511Z,20.50
2023-05-12T06:40:21.643Z,20.73
2023-05-12T06:42:49.937Z,20.94
2023-05-12T06:45:23.387Z,20.96
2023-05-12T06:47:51.511Z,21.31
2023-05-12T06:50:19.795Z,22.30
2023-05-12T06:52:52.409Z,23.01
2023-05-12T06:55:21.239Z,23.35
2023-05-12T06:57:51.776Z,24.32
2023-05-12T07:00:20.076Z,25.33
2023-05-12T07:02:47.787Z,24.98
2023-05-12T07:05:15.829Z,24.79
2023-05-12T07:07:43.427Z,24.74
2023-05-12T07:10:11.699Z,25.51
2023-05-12T07:12:39.665Z,26.16
2023-05-12T07:15:08.593Z,27.51
2023-05-12T07:17:36.366Z,28.11
2023-05-12T07:20:05.717Z,28.46
2023-05-12T07:22:33.555Z,29.48
2023-05-12T07:25:01.868Z,29.61
2023-05-12T07:27:29.590Z,28.71
2023-05-12T07:29:57.507Z,28.46
2023-05-12T07:32:25.944Z,28.43
2023-05-12T07:34:53.944Z,28.91
2023-05-12T07:37:21.573Z,29.29
2023-05-12T07:39:49.789Z,29.85
2023-05-12T07:42:17.516Z,29.85
2023-05-12T07:44:45.514Z,30.83
2023-05-12T07:47:13.254Z,30.96
2023-05-12T07:49:41.514Z,30.42
2023-05-12T07:52:09.587Z,30.10
2023-05-12T07:54:37.662Z,30.19
2023-05-12T07:57:05.601Z,30.35
2023-05-12T07:59:33.602Z,30.58
2023-05-12T08:02:01.671Z,30.26
2023-05-12T08:04:29.779Z,29.66
2023-05-12T08:06:57.483Z,30.09
2023-05-12T08:09:25.382Z,30.84
2023-05-12T08:11:53.118Z,28.64
2023-05-12T08:14:22.721Z,29.52
2023-05-12T08:16:50.728Z,29.99
2023-05-12T08:19:18.732Z,30.56
2023-05-12T08:21:46.375Z,30.43
2023-05-12T08:24:14.460Z,30.61
2023-05-12T08:26:42.173Z,29.89
2023-05-12T08:29:10.216Z,29.85
2023-05-12T08:31:39.067Z,30.39
2023-05-12T08:34:10.698Z,30.48
2023-05-12T08:36:42.464Z,30.35
2023-05-12T08:39:10.771Z,29.88
2023-05-12T08:42:17.542Z,29.72
2023-05-12T08:44:46.560Z,29.19
2023-05-12T08:47:18.560Z,29.38
2023-05-12T08:49:57.439Z,27.65
2023-05-12T08:52:26.074Z,28.00
2023-05-12T08:54:56.489Z,27.84
2023-05-12T08:57:26.408Z,28.52
2023-05-12T08:59:57.241Z,28.70
2023-05-12T09:02:37.704Z,28.75
2023-05-12T09:05:12.364Z,28.10
2023-05-12T09:07:48.062Z,28.85
2023-05-12T09:10:33.619Z,29.31
2023-05-12T09:13:14.769Z,28.96
2023-05-12T09:15:48.001Z,28.29
2023-05-12T09:18:15.812Z,28.11
2023-05-12T09:20:44.072Z,27.69
2023-05-12T09:23:20.057Z,28.82
2023-05-12T09:26:00.762Z,29.17
2023-05-12T09:28:38.800Z,29.77
2023-05-12T09:31:18.401Z,29.03
2023-05-12T09:33:46.221Z,28.59
2023-05-12T09:36:21.513Z,28.26
2023-05-12T09:39:07.162Z,27.70
2023-05-12T09:41:43.138Z,27.61
2023-05-12T09:44:14.659Z,27.74
2023-05-12T09:46:42.654Z,27.11
2023-05-12T09:49:10.574Z,26.45
2023-05-12T09:51:39.937Z,26.15
2023-05-12T09:54:08.082Z,26.55
2023-05-12T09:56:38.490Z,26.48
2023-05-12T09:59:07.332Z,26.18
2023-05-12T10:01:35.941Z,26.78
2023-05-12T10:04:07.669Z,27.05
2023-05-12T10:06:43.149Z,26.92
2023-05-12T10:09:18.556Z,27.75
2023-05-12T10:11:47.868Z,27.17
2023-05-12T10:14:16.645Z,25.46
2023-05-12T10:16:47.262Z,24.16
2023-05-12T10:19:15.706Z,22.93
2023-05-12T10:21:47.491Z,22.50
2023-05-12T10:24:18.537Z,21.80
2023-05-12T10:26:46.518Z,21.17
2023-05-12T10:29:15.186Z,21.13
2023-05-12T10:31:45.636Z,20.98
2023-05-12T10:34:21.672Z,20.90
2023-05-12T10:36:51.561Z,20.72
2023-05-12T10:39:19.977Z,20.72
2023-05-12T10:41:48.064Z,20.81
2023-05-12T10:44:26.314Z,20.49
2023-05-12T10:47:00.434Z,20.65
2023-05-12T10:49:41.913Z,20.65
2023-05-12T10:52:15.658Z,20.58
2023-05-12T10:54:44.847Z,20.40
2023-05-12T10:57:21.189Z,20.31
2023-05-12T10:59:57.644Z,20.17
2023-05-12T11:02:32.569Z,19.93
2023-05-12T11:05:07.282Z,19.98
2023-05-12T11:07:36.155Z,20.06
2023-05-12T11:10:07.610Z,20.11
2023-05-12T11:12:37.326Z,20.16
2023-05-12T11:15:06.807Z,20.22
2023-05-12T11:17:39.228Z,20.21
2023-05-12T11:20:09.809Z,20.15
2023-05-12T11:22:40.644Z,20.16
2023-05-12T11:25:12.638Z,20.15
2023-05-12T11:27:47.593Z,20.20
2023-05-12T11:30:15.996Z,20.52
2023-05-12T11:32:44.343Z,20.74
2023-05-12T11:35:17.106Z,20.76
2023-05-12T11:37:45.911Z,20.78
2023-05-12T11:40:18.139Z,20.72
2023-05-12T11:42:52.282Z,20.63
2023-05-12T11:45:24.781Z,20.66
2023-05-12T11:47:53.850Z,20.57
2023-05-12T11:50:25.876Z,20.61
2023-05-12T11:52:54.689Z,20.71
2023-05-12T11:55:24.125Z,20.89
2023-05-12T11:58:03.192Z,20.83
2023-05-12T12:00:40.221Z,20.88
2023-05-12T12:03:15.759Z,20.97
2023-05-12T12:05:45.948Z,21.10
2023-05-12T12:08:15.669Z,21.26
2023-05-12T12:10:47.243Z,21.18
2023-05-12T12:13:25.648Z,21.19
2023-05-12T12:15:54.468Z,20.92
2023-05-12T12:18:22.494Z,20.75
2023-05-12T12:20:50.285Z,20.46
2023-05-12T12:23:18.276Z,20.35
2023-05-12T12:25:45.902Z,20.47
2023-05-12T12:28:14.005Z,20.59
2023-05-12T12:30:41.746Z,20.72
2023-05-12T12:33:09.902Z,20.78
2023-05-12T12:35:37.671Z,20.81
2023-05-12T12:38:05.723Z,21.00
2023-05-12T12:40:33.438Z,21.12
2023-05-12T12:43:01.468Z,21.20
2023-05-12T12:45:29.573Z,21.18
2023-05-12T12:47:57.542Z,21.35
2023-05-12T12:50:27.197Z,21.07
2023-05-12T12:52:55.430Z,20.73
2023-05-12T12:55:23.426Z,20.70
2023-05-12T12:57:51.546Z,20.44
2023-05-12T13:00:19.740Z,20.46
2023-05-12T13:02:47.909Z,20.65
2023-05-12T13:05:16.405Z,20.68
2023-05-12T13:07:44.431Z,20.81
2023-05-12T13:10:12.503Z,20.98
2023-05-12T13:12:40.472Z,21.10
2023-05-12T13:15:08.628Z,21.27
2023-05-12T13:17:36.604Z,21.27
2023-05-12T13:20:04.755Z,21.35
2023-05-12T13:22:33.265Z,21.46
2023-05-12T13:25:01.177Z,21.57
2023-05-12T13:27:29.257Z,21.59
2023-05-12T13:29:56.937Z,21.78
2023-05-12T13:32:24.946Z,22.10
2023-05-12T13:34:52.676Z,22.04
2023-05-12T13:37:20.716Z,21.53
2023-05-12T13:39:48.562Z,21.12
2023-05-12T13:42:17.278Z,21.00
2023-05-12T13:44:45.013Z,20.78
2023-05-12T13:47:12.932Z,20.73
2023-05-12T13:49:40.911Z,20.47
2023-05-12T13:52:09.069Z,20.76
2023-05-12T13:54:36.982Z,20.80
2023-05-12T13:57:06.122Z,20.87
2023-05-12T13:59:34.028Z,21.09
2023-05-12T14:02:02.505Z,21.35
2023-05-12T14:04:30.364Z,21.56
2023-05-12T14:06:58.133Z,21.52
2023-05-12T14:09:26.219Z,21.61
2023-05-12T14:11:54.491Z,21.74
2023-05-12T14:14:22.420Z,21.80
2023-05-12T14:16:50.434Z,21.69
2023-05-12T14:19:18.482Z,21.44
2023-05-12T14:21:46.212Z,21.42
2023-05-12T14:24:14.204Z,21.41
2023-05-12T14:26:41.909Z,21.50
2023-05-12T14:29:10.179Z,21.66
2023-05-12T14:31:37.934Z,21.41
2023-05-12T14:34:05.951Z,21.29
2023-05-12T14:36:33.627Z,21.19
2023-05-12T14:39:01.587Z,20.96
2023-05-12T14:41:29.293Z,20.73
2023-05-12T14:43:57.875Z,20.81
2023-05-12T14:46:25.838Z,20.95
2023-05-12T14:48:53.901Z,20.95
2023-05-12T14:51:21.582Z,20.98
2023-05-12T14:53:49.576Z,20.93
2023-05-12T14:56:17.290Z,20.85
2023-05-12T14:58:45.141Z,20.78
2023-05-12T15:01:12.822Z,20.70
2023-05-12T15:03:40.765Z,20.95
2023-05-12T15:06:08.769Z,21.06
2023-05-12T15:08:36.879Z,21.29
2023-05-12T15:11:05.135Z,21.29
2023-05-12T15:13:33.296Z,21.28
2023-05-12T15:16:01.509Z,21.34
2023-05-12T15:18:29.578Z,21.43
2023-05-12T15:20:57.547Z,21.27
2023-05-12T15:23:25.737Z,21.15
2023-05-12T15:25:53.416Z,21.09
2023-05-12T15:28:21.375Z,21.02
2023-05-12T15:30:56.701Z,20.92
2023-05-12T15:33:26.802Z,20.97
2023-05-12T15:35:54.565Z,21.00
2023-05-12T15:38:22.595Z,20.91
2023-05-12T15:40:50.322Z,20.99
2023-05-12T15:43:18.392Z,21.04
2023-05-12T15:45:46.271Z,20.97
2023-05-12T15:48:14.223Z,20.87
2023-05-12T15:50:42.718Z,20.82
2023-05-12T15:53:10.832Z,20.64
2023-05-12T15:55:38.546Z,20.56
2023-05-12T15:58:08.296Z,20.56
2023-05-12T16:00:36.203Z,20.67
2023-05-12T16:03:04.399Z,20.79
2023-05-12T16:05:34.106Z,20.96
2023-05-12T16:08:02.039Z,21.04
2023-05-12T16:10:29.953Z,21.12
2023-05-12T16:12:57.904Z,20.96
2023-05-12T16:15:25.600Z,20.89
2023-05-12T16:17:53.601Z,20.57
2023-05-12T16:20:21.908Z,20.45
2023-05-12T16:22:51.286Z,20.26
2023-05-12T16:25:20.314Z,20.20
2023-05-12T16:27:48.577Z,20.03
2023-05-12T16:30:19.279Z,19.82
2023-05-12T16:32:48.316Z,19.71
2023-05-12T16:35:16.575Z,19.55
2023-05-12T16:37:44.508Z,19.42
2023-05-12T16:40:12.507Z,19.32
2023-05-12T16:42:40.787Z,19.26
2023-05-12T16:45:09.221Z,19.30
2023-05-12T16:47:37.191Z,19.11
2023-05-12T16:50:05.486Z,18.95
2023-05-12T16:52:33.653Z,19.03
2023-05-12T16:55:01.692Z,18.85
2023-05-12T16:57:29.663Z,18.89
2023-05-12T16:59:57.346Z,18.85
2023-05-12T17:02:25.471Z,18.91
2023-05-12T17:04:53.422Z,18.76
2023-05-12T17:07:21.434Z,18.78
2023-05-12T17:09:49.064Z,18.67
2023-05-12T17:12:17.156Z,18.67
2023-05-12T17:14:50.227Z,18.57
2023-05-12T17:17:24.006Z,18.55
2023-05-12T17:19:54.227Z,18.40
2023-05-12T17:22:22.384Z,18.29
2023-05-12T17:24:50.049Z,18.10
2023-05-12T17:27:18.010Z,18.12
2023-05-12T17:29:46.042Z,17.93
2023-05-12T17:32:14.085Z,17.83
2023-05-12T17:34:41.791Z,17.75
2023-05-12T17:37:10.075Z,17.68
2023-05-12T17:39:40.564Z,17.60
2023-05-12T17:42:09.235Z,17.44
2023-05-12T17:44:37.009Z,17.29
2023-05-12T17:47:05.459Z,17.13
2023-05-12T17:49:33.248Z,17.05
2023-05-12T17:52:01.226Z,16.90
2023-05-12T17:54:29.013Z,16.87
2023-05-12T17:56:57.202Z,16.79
2023-05-12T17:59:25.192Z,16.51
2023-05-12T18:01:53.574Z,16.28
2023-05-12T18:04:23.072Z,16.18
2023-05-12T18:06:51.282Z,16.07
2023-05-12T18:09:23.506Z,16.10
2023-05-12T18:11:51.440Z,16.09
2023-05-12T18:14:19.156Z,15.97
2023-05-12T18:16:47.285Z,15.85
2023-05-12T18:19:15.349Z,15.68
2023-05-12T18:21:43.439Z,15.57
2023-05-12T18:24:11.273Z,15.51
2023-05-12T18:26:39.226Z,15.14
2023-05-12T18:29:06.869Z,14.97
2023-05-12T18:31:36.173Z,14.90
2023-05-12T18:34:03.836Z,14.86
2023-05-12T18:36:32.234Z,14.70
2023-05-12T18:39:00.019Z,14.39
2023-05-12T18:41:28.140Z,14.15
2023-05-12T18:43:55.879Z,14.07
2023-05-12T18:46:23.889Z,14.05
2023-05-12T18:48:51.642Z,14.00
2023-05-12T18:51:19.726Z,13.77
2023-05-12T18:53:47.945Z,13.58
2023-05-12T18:56:15.932Z,13.42
2023-05-12T18:58:44.299Z,13.24
2023-05-12T19:01:12.410Z,13.11
2023-05-12T19:03:41.005Z,13.05
2023-05-12T19:06:08.918Z,12.92
2023-05-12T19:08:36.564Z,12.71
2023-05-12T19:11:04.784Z,12.53
2023-05-12T19:13:32.543Z,12.47
2023-05-12T19:16:00.782Z,12.29
2023-05-12T19:18:28.495Z,12.14
2023-05-12T19:20:56.781Z,12.02
2023-05-12T19:23:24.613Z,11.99
2023-05-12T19:25:52.628Z,11.91
2023-05-12T19:28:20.322Z,11.88
2023-05-12T19:30:48.243Z,11.78
2023-05-12T19:33:17.342Z,11.66
2023-05-12T19:35:45.585Z,11.57
2023-05-12T19:38:13.287Z,11.48
2023-05-12T19:40:41.273Z,11.66
2023-05-12T19:43:10.672Z,11.66
2023-05-12T19:45:39.102Z,11.43
2023-05-12T19:48:07.658Z,11.45
2023-05-12T19:50:35.751Z,11.25
2023-05-12T19:53:03.441Z,11.23
2023-05-12T19:55:31.590Z,11.15
2023-05-12T19:58:00.008Z,11.17
2023-05-12T20:00:28.177Z,11.05
2023-05-12T20:02:55.908Z,10.92
2023-05-12T20:05:24.506Z,10.78
2023-05-12T20:07:52.257Z,10.65
2023-05-12T20:10:20.366Z,10.63
2023-05-12T20:12:48.097Z,10.56
2023-05-12T20:15:16.296Z,10.54
2023-05-12T20:17:44.088Z,10.53
2023-05-12T20:20:12.512Z,10.53
2023-05-12T20:22:40.534Z,10.33
2023-05-12T20:25:09.189Z,10.31
2023-05-12T20:27:36.908Z,10.25
2023-05-12T20:30:05.892Z,10.17
2023-05-12T20:32:33.570Z,10.13
2023-05-12T20:35:01.948Z,10.15
2023-05-12T20:37:29.692Z,10.04
2023-05-12T20:39:57.860Z,9.98
2023-05-12T20:44:53.935Z,9.78
2023-05-12T20:47:21.776Z,9.66
2023-05-12T20:49:54.420Z,9.55
2023-05-12T20:52:23.301Z,9.56
2023-05-12T20:54:57.501Z,9.42
2023-05-12T20:57:28.921Z,9.36
2023-05-12T20:59:57.155Z,9.33
2023-05-12T21:02:26.944Z,9.29
2023-05-12T21:04:55.427Z,9.24
2023-05-12T21:07:23.243Z,9.27
2023-05-12T21:09:51.264Z,9.18
2023-05-12T21:12:19.016Z,9.23
2023-05-12T21:14:47.137Z,9.13
2023-05-12T21:17:16.439Z,9.03
2023-05-12T21:19:44.464Z,9.03
2023-05-12T21:22:12.987Z,9.08
2023-05-12T21:24:41.924Z,9.02
2023-05-12T21:27:09.809Z,8.90
2023-05-12T21:29:37.964Z,8.87
2023-05-12T21:32:06.249Z,8.76
2023-05-12T21:34:35.951Z,8.93
2023-05-12T21:37:03.911Z,9.09
2023-05-12T21:39:31.869Z,8.94
2023-05-12T21:41:59.750Z,8.95
2023-05-12T21:44:28.472Z,8.76
2023-05-12T21:46:58.673Z,8.61
2023-05-12T21:49:26.884Z,8.57
2023-05-12T21:51:57.382Z,8.50
2023-05-12T21:54:25.465Z,8.32
2023-05-12T21:56:53.225Z,8.30
2023-05-12T21:59:21.169Z,8.16
2023-05-12T22:01:48.922Z,8.17
2023-05-12T22:04:16.956Z,8.09
2023-05-12T22:06:44.743Z,8.00
2023-05-12T22:09:12.983Z,8.04
2023-05-12T22:11:40.705Z,8.14
2023-05-12T22:14:08.860Z,8.14
2023-05-12T22:16:41.862Z,8.18
2023-05-12T22:19:10.939Z,8.13
2023-05-12T22:21:38.933Z,8.12
2023-05-12T22:24:07.238Z,8.30
2023-05-12T22:26:34.958Z,8.50
2023-05-12T22:29:02.966Z,8.30
2023-05-12T22:31:30.661Z,8.16
2023-05-12T22:33:58.638Z,8.01
2023-05-12T22:36:26.437Z,7.87
2023-05-12T22:38:54.336Z,7.90
2023-05-12T22:41:22.048Z,7.89
2023-05-12T22:43:50.127Z,7.93
2023-05-12T22:46:17.906Z,8.09
2023-05-12T22:48:45.943Z,8.04
2023-05-12T22:51:13.568Z,7.97
2023-05-12T22:53:41.574Z,7.96
2023-05-12T22:56:09.304Z,8.23
2023-05-12T22:58:37.314Z,8.16
2023-05-12T23:01:05.117Z,8.10
2023-05-12T23:03:33.172Z,8.17
2023-05-12T23:06:00.885Z,8.11
2023-05-12T23:08:28.879Z,8.47
2023-05-12T23:10:56.538Z,8.49
2023-05-12T23:13:24.544Z,8.46
2023-05-12T23:15:52.170Z,8.39
2023-05-12T23:18:20.669Z,8.23
2023-05-12T23:20:48.368Z,8.20
2023-05-12T23:23:16.302Z,8.31
2023-05-12T23:25:43.993Z,8.47
2023-05-12T23:28:12.012Z,8.44
2023-05-12T23:30:39.670Z,8.33
2023-05-12T23:33:07.745Z,8.20
2023-05-12T23:35:35.559Z,8.15
2023-05-12T23:38:03.533Z,8.10
2023-05-12T23:40:33.472Z,7.97
2023-05-12T23:43:01.707Z,7.84
2023-05-12T23:45:29.349Z,7.75
2023-05-12T23:47:57.297Z,7.60
2023-05-12T23:50:25.100Z,7.51
2023-05-12T23:52:53.695Z,7.46
2023-05-12T23:55:22.347Z,7.43
2023-05-12T23:57:50.497Z,7.38
